createdAt,value
2023-03-02T00:01:01.801Z,7.18
2023-03-02T00:03:28.222Z,6.65
2023-03-02T00:05:54.942Z,5.95
2023-03-02T00:08:21.596Z,7.78
2023-03-02T00:10:48.223Z,7.32
2023-03-02T00:13:15.182Z,6.60
2023-03-02T00:15:42.166Z,6.28
2023-03-02T00:18:09.424Z,7.30
2023-03-02T00:20:35.882Z,7.30
2023-03-02T00:23:02.797Z,6.95
2023-03-02T00:25:29.217Z,7.18
2023-03-02T00:27:56.150Z,6.43
2023-03-02T00:30:22.511Z,8.27
2023-03-02T00:32:49.391Z,8.10
2023-03-02T00:35:15.831Z,6.25
2023-03-02T00:37:42.237Z,5.57
2023-03-02T00:40:08.734Z,6.47
2023-03-02T00:42:35.040Z,6.05
2023-03-02T00:45:01.439Z,6.10
2023-03-02T00:47:28.211Z,6.82
2023-03-02T00:49:54.580Z,6.47
2023-03-02T00:52:20.960Z,6.75
2023-03-02T00:54:47.342Z,6.43
2023-03-02T00:57:13.698Z,7.45
2023-03-02T00:59:40.425Z,6.15
2023-03-02T01:02:06.861Z,5.80
2023-03-02T01:04:33.545Z,6.40
2023-03-02T01:07:00.008Z,7.05
2023-03-02T01:09:26.401Z,6.45
2023-03-02T01:11:53.309Z,7.70
2023-03-02T01:14:19.648Z,6.05
2023-03-02T01:16:46.209Z,6.75
2023-03-02T01:19:13.071Z,7.38
2023-03-02T01:21:39.477Z,6.25
2023-03-02T01:24:05.814Z,6.78
2023-03-02T01:26:32.476Z,7.07
2023-03-02T01:28:59.097Z,6.55
2023-03-02T01:31:25.493Z,6.18
2023-03-02T01:33:51.928Z,6.25
2023-03-02T01:36:18.729Z,6.85
2023-03-02T01:38:45.246Z,5.55
2023-03-02T01:41:11.966Z,6.68
2023-03-02T01:43:38.415Z,6.72
2023-03-02T01:46:05.065Z,6.13
2023-03-02T01:48:31.614Z,6.45
2023-03-02T01:50:58.218Z,5.88
2023-03-02T01:53:24.557Z,7.82
2023-03-02T01:55:51.204Z,6.75
2023-03-02T01:58:17.542Z,6.93
2023-03-02T02:00:44.211Z,6.90
2023-03-02T02:03:11.012Z,6.15
2023-03-02T02:05:37.986Z,7.35
2023-03-02T02:08:04.390Z,6.40
2023-03-02T02:10:30.799Z,6.53
2023-03-02T02:12:57.264Z,7.20
2023-03-02T02:15:24.531Z,6.03
2023-03-02T02:17:50.997Z,7.35
2023-03-02T02:20:17.793Z,6.40
2023-03-02T02:22:44.795Z,7.13
2023-03-02T02:25:11.206Z,7.00
2023-03-02T02:27:37.627Z,6.07
2023-03-02T02:30:04.540Z,6.40
2023-03-02T02:32:31.220Z,6.80
2023-03-02T02:34:58.031Z,6.47
2023-03-02T02:37:24.357Z,6.28
2023-03-02T02:39:51.129Z,6.38
2023-03-02T02:42:17.719Z,6.03
2023-03-02T02:44:44.865Z,6.93
2023-03-02T02:47:11.300Z,7.10
2023-03-02T02:49:38.083Z,6.40
2023-03-02T02:52:04.906Z,7.93
2023-03-02T02:54:31.292Z,6.60
2023-03-02T02:56:58.286Z,7.07
2023-03-02T02:59:24.667Z,7.50
2023-03-02T03:01:50.964Z,6.47
2023-03-02T03:04:17.460Z,6.50
2023-03-02T03:06:44.171Z,7.15
2023-03-02T03:09:10.527Z,7.15
2023-03-02T03:11:37.062Z,7.03
2023-03-02T03:14:03.533Z,5.97
2023-03-02T03:16:30.162Z,6.00
2023-03-02T03:18:56.725Z,8.00
2023-03-02T03:21:23.289Z,7.43
2023-03-02T03:23:49.683Z,7.43
2023-03-02T03:26:16.091Z,7.10
2023-03-02T03:28:42.625Z,6.03
2023-03-02T03:31:09.159Z,7.90
2023-03-02T03:33:35.497Z,6.05
2023-03-02T03:36:02.861Z,7.03
2023-03-02T03:38:29.332Z,6.22
2023-03-02T03:40:55.665Z,6.07
2023-03-02T03:43:22.004Z,6.75
2023-03-02T03:45:48.409Z,7.05
2023-03-02T03:48:14.852Z,6.40
2023-03-02T03:50:41.436Z,7.30
2023-03-02T03:53:07.818Z,7.00
2023-03-02T03:55:34.648Z,6.63
2023-03-02T03:58:01.412Z,7.22
2023-03-02T04:00:28.275Z,6.40
2023-03-02T04:02:54.724Z,5.80
2023-03-02T04:05:21.201Z,6.93
2023-03-02T04:07:47.560Z,7.55
2023-03-02T04:10:13.876Z,7.47
2023-03-02T04:12:40.199Z,6.55
2023-03-02T04:15:06.958Z,7.78
2023-03-02T04:17:33.667Z,6.82
2023-03-02T04:20:00.426Z,5.95
2023-03-02T04:22:27.574Z,6.03
2023-03-02T04:24:54.503Z,5.65
2023-03-02T04:27:20.868Z,7.50
2023-03-02T04:29:47.517Z,6.30
2023-03-02T04:32:14.309Z,5.80
2023-03-02T04:34:40.795Z,7.57
2023-03-02T04:37:07.490Z,6.13
2023-03-02T04:39:33.850Z,7.10
2023-03-02T04:42:00.246Z,7.18
2023-03-02T04:44:26.697Z,6.15
2023-03-02T04:46:53.434Z,6.88
2023-03-02T04:49:19.921Z,6.57
2023-03-02T04:51:46.245Z,6.97
2023-03-02T04:54:12.649Z,7.35
2023-03-02T04:56:38.988Z,5.78
2023-03-02T04:59:05.406Z,7.05
2023-03-02T05:01:31.983Z,7.00
2023-03-02T05:03:58.401Z,7.22
2023-03-02T05:06:25.145Z,6.60
2023-03-02T05:08:51.544Z,6.78
2023-03-02T05:11:18.065Z,7.25
2023-03-02T05:13:44.784Z,6.57
2023-03-02T05:16:11.295Z,7.05
2023-03-02T05:18:38.264Z,7.07
2023-03-02T05:21:04.952Z,6.88
2023-03-02T05:23:31.382Z,6.38
2023-03-02T05:25:57.761Z,6.25
2023-03-02T05:28:24.342Z,7.13
2023-03-02T05:30:50.849Z,6.05
2023-03-02T05:33:17.534Z,6.85
2023-03-02T05:35:44.071Z,6.85
2023-03-02T05:38:10.518Z,6.68
2023-03-02T05:40:37.047Z,7.05
2023-03-02T05:43:03.651Z,7.22
2023-03-02T05:45:30.388Z,6.60
2023-03-02T05:47:57.201Z,7.07
2023-03-02T05:50:23.543Z,7.07
2023-03-02T05:52:50.029Z,7.50
2023-03-02T05:55:16.458Z,7.57
2023-03-02T05:57:43.374Z,6.28
2023-03-02T06:00:09.709Z,6.30
2023-03-02T06:02:36.018Z,6.95
2023-03-02T06:05:02.418Z,7.45
2023-03-02T06:07:28.823Z,7.03
2023-03-02T06:09:55.598Z,6.10
2023-03-02T06:12:22.072Z,6.32
2023-03-02T06:14:48.745Z,7.28
2023-03-02T06:17:15.368Z,6.88
2023-03-02T06:19:41.753Z,6.90
2023-03-02T06:22:08.148Z,7.10
2023-03-02T06:24:34.502Z,6.35
2023-03-02T06:27:00.857Z,6.43
2023-03-02T06:29:27.258Z,7.30
2023-03-02T06:31:53.715Z,7.00
2023-03-02T06:34:20.297Z,5.82
2023-03-02T06:36:47.165Z,6.75
2023-03-02T06:39:13.544Z,7.60
2023-03-02T06:41:39.912Z,8.75
2023-03-02T06:44:06.225Z,6.70
2023-03-02T06:46:33.363Z,7.20
2023-03-02T06:48:59.985Z,7.05
2023-03-02T06:51:26.689Z,8.63
2023-03-02T06:53:53.463Z,8.00
2023-03-02T06:56:20.387Z,12.13
2023-03-02T06:58:47.504Z,12.70
2023-03-02T07:01:13.843Z,12.02
2023-03-02T07:03:40.268Z,10.35
2023-03-02T07:06:07.622Z,9.07
2023-03-02T07:08:34.185Z,16.00
2023-03-02T07:11:00.985Z,12.18
2023-03-02T07:13:27.589Z,12.65
2023-03-02T07:15:53.965Z,12.35
2023-03-02T07:18:21.024Z,11.65
2023-03-02T07:20:47.444Z,10.02
2023-03-02T07:23:13.909Z,14.38
2023-03-02T07:25:40.338Z,15.50
2023-03-02T07:28:06.840Z,20.30
2023-03-02T07:30:33.284Z,20.63
2023-03-02T07:32:59.945Z,24.95
2023-03-02T07:35:26.837Z,25.00
2023-03-02T07:37:53.261Z,23.65
2023-03-02T07:40:20.002Z,24.67
2023-03-02T07:42:46.446Z,26.33
2023-03-02T07:45:12.862Z,28.10
2023-03-02T07:47:39.225Z,27.08
2023-03-02T07:50:06.132Z,27.73
2023-03-02T07:52:32.667Z,26.13
2023-03-02T07:54:59.624Z,27.13
2023-03-02T07:57:26.044Z,27.25
2023-03-02T07:59:52.449Z,26.77
2023-03-02T08:02:18.887Z,28.20
2023-03-02T08:04:45.794Z,26.52
2023-03-02T08:07:12.402Z,26.30
2023-03-02T08:09:38.746Z,28.85
2023-03-02T08:12:05.195Z,27.83
2023-03-02T08:14:31.746Z,27.85
2023-03-02T08:16:58.177Z,29.60
2023-03-02T08:19:24.855Z,28.73
2023-03-02T08:21:51.170Z,26.85
2023-03-02T08:24:17.488Z,28.83
2023-03-02T08:26:43.917Z,28.55
2023-03-02T08:29:10.626Z,31.20
2023-03-02T08:31:37.586Z,29.55
2023-03-02T08:34:04.561Z,30.13
2023-03-02T08:36:31.122Z,29.30
2023-03-02T08:38:57.816Z,30.85
2023-03-02T08:41:24.710Z,29.45
2023-03-02T08:43:51.777Z,30.70
2023-03-02T08:46:18.243Z,31.65
2023-03-02T08:48:44.933Z,28.90
2023-03-02T08:51:11.657Z,29.00
2023-03-02T08:53:38.150Z,29.30
2023-03-02T08:56:04.561Z,31.17
2023-03-02T08:58:31.371Z,27.67
2023-03-02T09:00:57.944Z,31.52
2023-03-02T09:03:24.387Z,32.28
2023-03-02T09:05:50.869Z,30.10
2023-03-02T09:08:17.280Z,29.45
2023-03-02T09:10:43.694Z,31.23
2023-03-02T09:13:10.097Z,31.63
2023-03-02T09:15:36.491Z,29.70
2023-03-02T09:18:03.055Z,33.47
2023-03-02T09:20:29.415Z,27.83
2023-03-02T09:22:55.822Z,31.45
2023-03-02T09:25:22.116Z,31.52
2023-03-02T09:27:48.704Z,32.80
2023-03-02T09:30:15.483Z,31.08
2023-03-02T09:32:42.149Z,34.70
2023-03-02T09:35:08.809Z,32.88
2023-03-02T09:37:35.453Z,33.15
2023-03-02T09:40:01.813Z,33.35
2023-03-02T09:42:41.811Z,34.55
2023-03-02T09:45:10.110Z,32.15
2023-03-02T09:47:36.633Z,34.75
2023-03-02T09:50:03.033Z,36.85
2023-03-02T09:52:29.398Z,37.42
2023-03-02T09:54:55.725Z,41.30
2023-03-02T09:57:22.121Z,41.10
2023-03-02T09:59:48.419Z,43.13
2023-03-02T10:02:14.869Z,42.22
2023-03-02T10:04:41.381Z,39.67
2023-03-02T10:07:08.239Z,43.40
2023-03-02T10:09:34.634Z,36.58
2023-03-02T10:12:00.962Z,43.90
2023-03-02T10:14:27.455Z,41.65
2023-03-02T10:16:53.798Z,40.50
2023-03-02T10:19:20.183Z,40.28
2023-03-02T10:21:46.526Z,41.13
2023-03-02T10:24:13.460Z,42.70
2023-03-02T10:26:39.983Z,42.15
2023-03-02T10:29:06.343Z,40.92
2023-03-02T10:31:32.679Z,42.00
2023-03-02T10:33:59.115Z,43.20
2023-03-02T10:36:25.630Z,43.05
2023-03-02T10:38:52.267Z,38.92
2023-03-02T10:41:18.683Z,43.70
2023-03-02T10:43:45.545Z,39.42
2023-03-02T10:46:12.221Z,46.95
2023-03-02T10:48:41.029Z,46.55
2023-03-02T10:51:07.647Z,43.15
2023-03-02T10:53:34.286Z,43.50
2023-03-02T10:56:00.603Z,43.35
2023-03-02T10:58:27.983Z,39.28
2023-03-02T11:00:54.424Z,47.60
2023-03-02T11:03:20.929Z,40.40
2023-03-02T11:05:47.656Z,43.05
2023-03-02T11:08:14.236Z,43.22
2023-03-02T11:10:40.854Z,43.70
2023-03-02T11:13:07.275Z,42.47
2023-03-02T11:15:33.646Z,40.35
2023-03-02T11:18:00.139Z,43.92
2023-03-02T11:20:26.466Z,41.22
2023-03-02T11:22:53.334Z,40.25
2023-03-02T11:25:19.643Z,40.05
2023-03-02T11:27:46.380Z,38.90
2023-03-02T11:30:12.865Z,39.47
2023-03-02T11:32:39.538Z,44.50
2023-03-02T11:35:05.967Z,38.75
2023-03-02T11:37:32.320Z,41.08
2023-03-02T11:39:59.630Z,39.70
2023-03-02T11:42:26.120Z,43.13
2023-03-02T11:44:52.942Z,41.80
2023-03-02T11:47:19.424Z,41.25
2023-03-02T11:49:45.910Z,42.97
2023-03-02T11:52:12.649Z,39.83
2023-03-02T11:54:39.617Z,43.10
2023-03-02T11:57:05.926Z,38.95
2023-03-02T11:59:32.619Z,42.38
2023-03-02T12:01:59.713Z,36.78
2023-03-02T12:04:26.607Z,39.97
2023-03-02T12:06:53.178Z,39.80
2023-03-02T12:09:19.526Z,36.80
2023-03-02T12:11:45.848Z,38.47
2023-03-02T12:14:12.187Z,40.95
2023-03-02T12:16:39.132Z,39.22
2023-03-02T12:19:05.702Z,40.47
2023-03-02T12:21:32.412Z,39.75
2023-03-02T12:23:58.957Z,41.30
2023-03-02T12:26:25.442Z,40.50
2023-03-02T12:28:52.520Z,37.22
2023-03-02T12:31:19.357Z,39.10
2023-03-02T12:33:45.866Z,39.80
2023-03-02T12:36:12.258Z,40.40
2023-03-02T12:38:39.212Z,37.72
2023-03-02T12:41:05.578Z,40.38
2023-03-02T12:43:31.983Z,41.08
2023-03-02T12:45:58.539Z,36.42
2023-03-02T12:48:25.957Z,38.28
2023-03-02T12:50:52.534Z,39.75
2023-03-02T12:53:18.882Z,38.90
2023-03-02T12:55:45.281Z,40.00
2023-03-02T12:58:11.619Z,36.47
2023-03-02T13:00:38.042Z,38.55
2023-03-02T13:03:04.438Z,37.45
2023-03-02T13:05:31.306Z,38.97
2023-03-02T13:07:58.282Z,35.72
2023-03-02T13:10:24.828Z,39.50
2023-03-02T13:12:51.257Z,38.10
2023-03-02T13:15:17.662Z,38.22
2023-03-02T13:17:44.316Z,38.67
2023-03-02T13:20:10.804Z,35.50
2023-03-02T13:22:37.668Z,38.17
2023-03-02T13:25:04.040Z,36.03
2023-03-02T13:27:30.381Z,36.28
2023-03-02T13:29:57.283Z,39.10
2023-03-02T13:32:24.116Z,40.10
2023-03-02T13:34:50.526Z,35.72
2023-03-02T13:37:16.859Z,37.67
2023-03-02T13:39:43.461Z,34.65
2023-03-02T13:42:10.452Z,39.90
2023-03-02T13:44:36.947Z,37.20
2023-03-02T13:47:03.733Z,34.75
2023-03-02T13:49:30.170Z,38.75
2023-03-02T13:51:56.604Z,35.78
2023-03-02T13:54:23.106Z,36.50
2023-03-02T13:56:49.455Z,34.50
2023-03-02T13:59:15.789Z,33.22
2023-03-02T14:01:42.261Z,34.70
2023-03-02T14:04:08.711Z,35.67
2023-03-02T14:06:35.743Z,35.10
2023-03-02T14:09:02.581Z,32.08
2023-03-02T14:11:28.985Z,37.72
2023-03-02T14:13:55.305Z,35.33
2023-03-02T14:16:21.952Z,35.95
2023-03-02T14:18:48.330Z,37.45
2023-03-02T14:21:14.830Z,40.22
2023-03-02T14:23:41.392Z,40.45
2023-03-02T14:26:07.814Z,41.10
2023-03-02T14:28:34.735Z,40.65
2023-03-02T14:31:01.687Z,38.22
2023-03-02T14:33:28.389Z,40.97
2023-03-02T14:35:55.026Z,38.38
2023-03-02T14:38:21.436Z,36.00
2023-03-02T14:40:47.848Z,36.63
2023-03-02T14:43:14.270Z,39.50
2023-03-02T14:45:40.940Z,36.97
2023-03-02T14:48:07.435Z,35.80
2023-03-02T14:50:33.772Z,37.85
2023-03-02T14:53:00.431Z,37.92
2023-03-02T14:55:27.312Z,36.38
2023-03-02T14:57:53.817Z,34.05
2023-03-02T15:00:20.491Z,34.50
2023-03-02T15:02:47.864Z,34.58
2023-03-02T15:05:14.598Z,35.40
2023-03-02T15:07:41.062Z,35.10
2023-03-02T15:10:07.411Z,33.72
2023-03-02T15:12:34.164Z,36.22
2023-03-02T15:15:01.258Z,35.00
2023-03-02T15:17:27.632Z,36.60
2023-03-02T15:19:54.467Z,32.20
2023-03-02T15:22:20.804Z,34.25
2023-03-02T15:24:47.623Z,32.47
2023-03-02T15:27:14.040Z,34.00
2023-03-02T15:29:40.388Z,32.53
2023-03-02T15:32:06.755Z,33.42
2023-03-02T15:34:33.592Z,32.10
2023-03-02T15:36:59.974Z,32.33
2023-03-02T15:39:26.524Z,34.63
2023-03-02T15:41:53.134Z,32.45
2023-03-02T15:44:19.452Z,33.55
2023-03-02T15:46:45.974Z,32.85
2023-03-02T15:49:12.421Z,32.72
2023-03-02T15:51:38.765Z,33.63
2023-03-02T15:54:05.670Z,31.90
2023-03-02T15:56:42.343Z,31.02
2023-03-02T15:59:08.894Z,31.92
2023-03-02T16:01:35.320Z,31.30
2023-03-02T16:04:01.768Z,33.08
2023-03-02T16:06:28.294Z,31.58
2023-03-02T16:08:55.093Z,29.52
2023-03-02T16:11:21.973Z,31.45
2023-03-02T16:13:48.955Z,33.75
2023-03-02T16:16:15.566Z,32.45
2023-03-02T16:18:42.579Z,30.55
2023-03-02T16:21:09.326Z,29.75
2023-03-02T16:23:35.607Z,31.27
2023-03-02T16:26:02.461Z,29.73
2023-03-02T16:28:28.837Z,30.73
2023-03-02T16:30:55.530Z,31.25
2023-03-02T16:33:22.034Z,33.58
2023-03-02T16:35:49.411Z,32.30
2023-03-02T16:38:16.625Z,31.33
2023-03-02T16:40:43.095Z,31.38
2023-03-02T16:43:09.451Z,31.13
2023-03-02T16:45:36.290Z,32.00
2023-03-02T16:48:02.819Z,32.08
2023-03-02T16:50:29.557Z,34.60
2023-03-02T16:52:55.953Z,34.53
2023-03-02T16:55:22.637Z,31.65
2023-03-02T16:57:48.980Z,33.30
2023-03-02T17:00:15.510Z,31.85
2023-03-02T17:02:41.917Z,33.72
2023-03-02T17:05:08.537Z,34.65
2023-03-02T17:07:35.324Z,30.80
2023-03-02T17:10:02.469Z,32.63
2023-03-02T17:12:29.068Z,33.00
2023-03-02T17:14:55.815Z,32.05
2023-03-02T17:17:22.624Z,33.67
2023-03-02T17:19:49.506Z,33.15
2023-03-02T17:22:15.966Z,32.42
2023-03-02T17:24:42.386Z,29.80
2023-03-02T17:27:23.778Z,33.28
2023-03-02T17:29:51.213Z,30.73
2023-03-02T17:32:18.658Z,32.17
2023-03-02T17:34:45.296Z,32.08
2023-03-02T17:37:11.704Z,30.67
2023-03-02T17:39:38.083Z,33.20
2023-03-02T17:42:04.595Z,31.52
2023-03-02T17:44:30.903Z,31.38
2023-03-02T17:46:57.243Z,31.10
2023-03-02T17:49:23.607Z,30.85
2023-03-02T17:51:50.026Z,28.83
2023-03-02T17:54:16.518Z,32.35
2023-03-02T17:56:42.938Z,185.63
2023-03-02T17:59:10.149Z,229.05
2023-03-02T18:01:37.036Z,201.15
2023-03-02T18:04:03.779Z,184.20
2023-03-02T18:06:30.197Z,191.25
2023-03-02T18:08:57.093Z,338.50
2023-03-02T18:11:23.665Z,279.05
2023-03-02T18:13:50.750Z,256.38
2023-03-02T18:16:17.289Z,237.73
2023-03-02T18:18:43.970Z,220.27
2023-03-02T18:21:10.442Z,206.82
2023-03-02T18:23:37.113Z,188.15
2023-03-02T18:26:03.780Z,178.73
2023-03-02T18:28:30.255Z,171.82
2023-03-02T18:30:56.765Z,164.45
2023-03-02T18:33:23.194Z,150.75
2023-03-02T18:35:49.710Z,140.73
2023-03-02T18:38:16.226Z,134.55
2023-03-02T18:40:42.732Z,131.82
2023-03-02T18:43:09.345Z,119.30
2023-03-02T18:45:35.783Z,114.95
2023-03-02T18:48:02.278Z,104.97
2023-03-02T18:50:29.078Z,105.68
2023-03-02T18:52:55.431Z,96.35
2023-03-02T18:55:22.046Z,90.95
2023-03-02T18:57:48.450Z,89.90
2023-03-02T19:00:14.953Z,83.28
2023-03-02T19:02:41.359Z,80.30
2023-03-02T19:05:07.958Z,73.32
2023-03-02T19:07:34.478Z,70.28
2023-03-02T19:10:01.096Z,72.10
2023-03-02T19:12:27.906Z,66.57
2023-03-02T19:14:54.383Z,62.20
2023-03-02T19:17:20.686Z,58.53
2023-03-02T19:19:47.299Z,57.08
2023-03-02T19:22:14.102Z,54.47
2023-03-02T19:24:40.472Z,53.10
2023-03-02T19:27:07.327Z,50.60
2023-03-02T19:29:33.719Z,48.75
2023-03-02T19:32:00.203Z,47.97
2023-03-02T19:34:26.974Z,43.83
2023-03-02T19:36:53.294Z,45.83
2023-03-02T19:39:19.647Z,41.22
2023-03-02T19:41:46.291Z,40.38
2023-03-02T19:44:12.710Z,38.92
2023-03-02T19:46:39.085Z,39.05
2023-03-02T19:49:05.439Z,37.13
2023-03-02T19:51:31.726Z,35.90
2023-03-02T19:53:58.086Z,33.60
2023-03-02T19:56:24.584Z,34.30
2023-03-02T19:58:50.964Z,32.22
2023-03-02T20:01:17.470Z,31.60
2023-03-02T20:03:43.961Z,31.95
2023-03-02T20:06:10.305Z,30.42
2023-03-02T20:08:36.666Z,31.40
2023-03-02T20:11:03.277Z,28.80
2023-03-02T20:13:29.724Z,29.77
2023-03-02T20:15:56.098Z,27.08
2023-03-02T20:18:22.827Z,88.03
2023-03-02T20:20:49.169Z,216.63
2023-03-02T20:23:15.607Z,216.38
2023-03-02T20:25:41.954Z,198.23
2023-03-02T20:28:08.332Z,172.13
2023-03-02T20:30:34.881Z,201.82
2023-03-02T20:33:01.495Z,262.52
2023-03-02T20:35:27.895Z,238.23
2023-03-02T20:37:54.498Z,224.18
2023-03-02T20:40:21.239Z,205.43
2023-03-02T20:42:48.334Z,186.82
2023-03-02T20:45:15.055Z,174.95
2023-03-02T20:47:41.546Z,164.70
2023-03-02T20:50:07.891Z,153.52
2023-03-02T20:52:34.666Z,148.52
2023-03-02T20:55:01.470Z,139.88
2023-03-02T20:57:28.072Z,130.13
2023-03-02T20:59:54.510Z,236.88
2023-03-02T21:02:20.846Z,298.48
2023-03-02T21:04:47.206Z,279.52
2023-03-02T21:07:13.727Z,253.50
2023-03-02T21:09:40.219Z,232.95
2023-03-02T21:12:06.758Z,223.55
2023-03-02T21:14:33.787Z,208.70
2023-03-02T21:17:00.178Z,189.57
2023-03-02T21:19:26.704Z,182.80
2023-03-02T21:21:53.065Z,169.05
2023-03-02T21:24:19.408Z,157.55
2023-03-02T21:26:45.741Z,149.25
2023-03-02T21:29:12.250Z,140.70
2023-03-02T21:31:39.130Z,134.13
2023-03-02T21:34:05.632Z,129.60
2023-03-02T21:36:32.344Z,124.07
2023-03-02T21:38:59.563Z,114.38
2023-03-02T21:41:26.100Z,108.45
2023-03-02T21:43:52.504Z,110.32
2023-03-02T21:46:19.159Z,101.07
2023-03-02T21:48:45.869Z,258.90
2023-03-02T21:51:12.222Z,230.85
2023-03-02T21:53:38.831Z,219.38
2023-03-02T21:56:05.281Z,202.48
2023-03-02T21:58:31.698Z,179.55
2023-03-02T22:00:58.124Z,171.85
2023-03-02T22:03:25.136Z,164.10
2023-03-02T22:05:51.835Z,153.30
2023-03-02T22:08:18.679Z,138.20
2023-03-02T22:10:45.989Z,134.57
2023-03-02T22:13:12.549Z,125.05
2023-03-02T22:15:39.136Z,122.10
2023-03-02T22:18:05.913Z,126.45
2023-03-02T22:20:32.387Z,223.75
2023-03-02T22:22:59.654Z,253.65
2023-03-02T22:25:26.584Z,220.35
2023-03-02T22:27:53.530Z,204.93
2023-03-02T22:30:20.267Z,197.15
2023-03-02T22:32:47.008Z,399.90
2023-03-02T22:35:15.122Z,349.88
2023-03-02T22:37:42.239Z,330.20
2023-03-02T22:40:09.203Z,323.15
2023-03-02T22:42:35.863Z,313.38
2023-03-02T22:45:02.901Z,305.42
2023-03-02T22:47:29.525Z,301.13
2023-03-02T22:49:56.117Z,295.88
2023-03-02T22:52:22.952Z,364.83
2023-03-02T22:54:49.540Z,637.33
2023-03-02T22:57:16.701Z,533.40
2023-03-02T22:59:43.232Z,716.53
2023-03-02T23:02:09.879Z,687.60
2023-03-02T23:04:36.491Z,639.60
2023-03-02T23:07:03.772Z,609.55
2023-03-02T23:09:30.366Z,575.35
2023-03-02T23:11:57.459Z,656.17
2023-03-02T23:14:25.553Z,750.75
2023-03-02T23:16:52.286Z,692.80
2023-03-02T23:19:19.096Z,644.45
2023-03-02T23:21:45.764Z,625.40
2023-03-02T23:24:12.383Z,608.35
2023-03-02T23:26:39.719Z,594.30
2023-03-02T23:29:06.352Z,575.78
2023-03-02T23:31:33.882Z,551.85
2023-03-02T23:34:00.292Z,556.15
2023-03-02T23:36:26.910Z,545.35
2023-03-02T23:38:54.009Z,521.80
2023-03-02T23:41:21.826Z,511.80
2023-03-02T23:43:49.648Z,491.83
2023-03-02T23:46:16.332Z,500.65
2023-03-02T23:48:42.817Z,478.00
2023-03-02T23:51:09.684Z,479.98
2023-03-02T23:53:36.578Z,463.92
2023-03-02T23:56:04.169Z,455.35
2023-03-02T23:58:32.207Z,446.70
